Time;durP1;ratioP1;P1;durP2;ratioP2;P2;SDS_P1;SDS_P2;PMS_P1;PMS_P2;Temp;Humidity;BMP_temperature;BMP_pressure;BME280_temperature;BME280_humidity;BME280_pressure;Samples;Min_cycle;Max_cycle;Signal;HPM_P1;HPM_P2
2021/12/15 00:03:02;;;;;;;62.03;35.97;;;8.40;59.30;;;;;;6229301;28;20620;-59
2021/12/15 00:06:12;;;;;;;63.17;35.57;;;8.40;59.00;;;;;;6236828;28;20335;-58
2021/12/15 00:09:15;;;;;;;61.87;35.90;;;8.40;59.10;;;;;;6233562;28;20314;-59
2021/12/15 00:12:19;;;;;;;59.97;35.90;;;8.40;59.00;;;;;;6237754;28;20741;-59
2021/12/15 00:15:27;;;;;;;62.17;36.07;;;8.40;58.50;;;;;;6239275;28;20239;-59
2021/12/15 00:18:30;;;;;;;63.03;35.77;;;8.40;58.90;;;;;;6238205;28;20241;-59
2021/12/15 00:21:35;;;;;;;62.67;35.33;;;8.40;58.80;;;;;;6240155;28;20728;-59
2021/12/15 00:24:39;;;;;;;63.80;36.23;;;8.60;58.70;;;;;;6231495;28;20259;-59
2021/12/15 00:27:42;;;;;;;59.13;34.90;;;8.40;57.70;;;;;;6191451;28;20243;-59
2021/12/15 00:30:45;;;;;;;57.83;34.07;;;8.40;57.90;;;;;;6189140;28;20240;-60
2021/12/15 00:33:49;;;;;;;64.53;36.03;;;8.40;58.40;;;;;;6192255;28;20266;-60
2021/12/15 00:36:53;;;;;;;65.70;35.10;;;8.40;58.30;;;;;;6189686;28;20301;-59
2021/12/15 00:39:56;;;;;;;61.40;35.33;;;8.40;58.50;;;;;;6179371;28;20240;-57
2021/12/15 00:43:01;;;;;;;58.17;33.87;;;8.40;58.50;;;;;;6190023;28;20778;-57
2021/12/15 00:46:04;;;;;;;58.00;34.40;;;8.40;58.10;;;;;;6190263;28;20800;-58
2021/12/15 00:49:08;;;;;;;55.73;33.60;;;8.40;57.90;;;;;;6213176;28;20282;-59
2021/12/15 00:52:13;;;;;;;53.50;32.73;;;8.40;57.50;;;;;;6214480;28;20266;-59
2021/12/15 00:55:25;;;;;;;55.60;32.37;;;8.40;57.60;;;;;;6199040;28;20595;-58
2021/12/15 00:58:28;;;;;;;59.20;33.17;;;8.40;58.10;;;;;;6190499;28;20733;-58
2021/12/15 01:01:31;;;;;;;60.93;33.53;;;8.40;57.80;;;;;;6201940;28;20954;-58
2021/12/15 01:04:35;;;;;;;55.73;32.77;;;8.40;58.30;;;;;;6205837;28;20353;-59
2021/12/15 01:07:39;;;;;;;57.60;33.93;;;8.40;57.90;;;;;;6206357;28;20274;-60
2021/12/15 01:10:58;;;;;;;61.03;33.50;;;8.40;57.90;;;;;;6197168;28;20232;-59
2021/12/15 01:20:53;;;;;;;57.03;33.73;;;8.20;57.40;;;;;;6228494;28;20235;-61
2021/12/15 01:23:58;;;;;;;59.67;32.77;;;8.40;57.90;;;;;;6211483;28;20245;-54
2021/12/15 01:27:01;;;;;;;59.27;33.97;;;8.40;58.40;;;;;;6238680;28;20242;-60
2021/12/15 01:30:06;;;;;;;58.07;32.03;;;8.40;58.40;;;;;;6238433;28;20368;-60
2021/12/15 01:33:10;;;;;;;60.33;33.20;;;8.30;59.00;;;;;;6228673;28;20226;-59
2021/12/15 01:36:13;;;;;;;55.97;31.90;;;8.40;58.70;;;;;;6216619;28;20579;-59
2021/12/15 01:39:18;;;;;;;63.17;33.23;;;8.40;59.00;;;;;;6214234;28;20235;-59
2021/12/15 01:42:23;;;;;;;61.03;32.83;;;8.40;59.10;;;;;;6215466;28;20238;-60
2021/12/15 01:48:56;;;;;;;61.90;33.53;;;8.40;58.20;;;;;;6228362;28;20615;-60
2021/12/15 01:52:02;;;;;;;59.77;33.13;;;8.40;57.90;;;;;;6217757;28;20243;-60
2021/12/15 01:55:10;;;;;;;55.80;33.00;;;8.60;58.10;;;;;;6218886;28;20246;-59
2021/12/15 01:58:13;;;;;;;58.73;32.70;;;8.40;58.20;;;;;;6234039;28;20290;-58
2021/12/15 02:01:17;;;;;;;60.33;32.80;;;8.40;58.00;;;;;;6243722;28;20339;-60
2021/12/15 02:04:20;;;;;;;61.63;33.43;;;8.30;58.30;;;;;;6243469;28;20612;-58
2021/12/15 02:07:25;;;;;;;57.77;32.83;;;8.30;58.60;;;;;;6233318;28;20231;-59
2021/12/15 02:10:32;;;;;;;62.53;34.00;;;8.30;58.70;;;;;;6238436;28;20670;-59
2021/12/15 02:13:36;;;;;;;55.70;32.10;;;8.30;58.60;;;;;;6203478;28;20243;-60
2021/12/15 02:16:39;;;;;;;56.03;32.90;;;8.40;58.50;;;;;;6197807;28;20293;-58
2021/12/15 02:19:43;;;;;;;53.73;30.83;;;8.40;57.10;;;;;;6212548;28;20302;-59
2021/12/15 02:22:47;;;;;;;54.93;31.13;;;8.40;57.10;;;;;;6218040;28;20899;-58
2021/12/15 02:25:51;;;;;;;55.13;30.83;;;8.40;56.90;;;;;;6193495;28;20244;-60
2021/12/15 02:28:56;;;;;;;53.40;29.87;;;8.40;57.30;;;;;;6193503;28;20240;-61
2021/12/15 02:32:11;;;;;;;52.87;30.53;;;8.40;57.70;;;;;;6195704;28;20386;-60
2021/12/15 02:38:40;;;;;;;55.77;30.93;;;8.40;57.30;;;;;;6217428;28;20235;-60
2021/12/15 02:41:45;;;;;;;50.97;29.47;;;8.40;56.80;;;;;;6217914;28;20314;-60
2021/12/15 02:44:48;;;;;;;47.47;29.93;;;8.40;56.90;;;;;;6217375;28;20708;-60
2021/12/15 02:47:52;;;;;;;50.87;29.70;;;8.40;57.30;;;;;;6208866;28;20666;-60
2021/12/15 02:50:55;;;;;;;53.43;30.40;;;8.30;56.80;;;;;;6199321;28;20247;-60
2021/12/15 02:54:00;;;;;;;46.57;27.63;;;8.30;57.20;;;;;;6216069;28;20239;-59
2021/12/15 02:57:09;;;;;;;46.80;27.13;;;8.40;57.30;;;;;;6216626;28;20270;-58
2021/12/15 03:00:20;;;;;;;45.20;25.87;;;8.40;56.70;;;;;;6215689;28;20254;-59
2021/12/15 03:03:52;;;;;;;44.43;26.00;;;8.40;56.00;;;;;;6215957;28;20366;-60
2021/12/15 03:07:03;;;;;;;43.67;27.23;;;8.50;55.30;;;;;;6218592;28;20387;-60
2021/12/15 03:16:47;;;;;;;43.20;27.23;;;8.50;55.00;;;;;;6223472;28;20765;-59
2021/12/15 03:19:52;;;;;;;44.80;26.53;;;8.50;54.10;;;;;;6242602;28;20258;-59
2021/12/15 03:22:55;;;;;;;39.67;26.23;;;8.50;54.20;;;;;;6233806;28;20306;-59
2021/12/15 03:26:01;;;;;;;44.73;27.10;;;8.50;53.90;;;;;;6240310;28;20239;-58
2021/12/15 03:36:04;;;;;;;44.90;27.77;;;8.50;55.20;;;;;;6214490;28;20708;-59
2021/12/15 03:39:10;;;;;;;44.67;27.80;;;8.50;54.80;;;;;;6214651;28;20353;-61
2021/12/15 03:42:17;;;;;;;42.37;27.37;;;8.50;55.00;;;;;;6212836;28;20251;-60
2021/12/15 03:45:25;;;;;;;44.83;27.27;;;8.50;55.60;;;;;;6215263;28;20326;-59
2021/12/15 03:48:31;;;;;;;45.70;28.37;;;8.50;54.10;;;;;;6228554;28;20242;-60
2021/12/15 03:51:35;;;;;;;43.83;28.00;;;8.60;52.50;;;;;;6239536;28;20231;-60
2021/12/15 03:54:38;;;;;;;45.27;26.90;;;8.60;53.30;;;;;;6229489;28;21750;-60
2021/12/15 03:57:43;;;;;;;40.37;26.00;;;8.60;52.50;;;;;;6217258;28;20227;-60
2021/12/15 04:00:51;;;;;;;41.33;27.40;;;8.60;52.60;;;;;;6211611;28;20241;-58
2021/12/15 04:03:56;;;;;;;40.30;25.97;;;8.50;52.90;;;;;;6224442;28;20235;-60
2021/12/15 04:06:59;;;;;;;41.63;26.20;;;8.50;53.60;;;;;;6221431;28;20492;-59
2021/12/15 04:10:03;;;;;;;37.40;25.07;;;8.50;53.50;;;;;;6223878;28;20708;-62
2021/12/15 04:13:09;;;;;;;37.93;26.60;;;8.50;53.70;;;;;;6215258;28;20243;-59
2021/12/15 04:16:26;;;;;;;40.13;26.57;;;8.50;53.40;;;;;;6215464;28;20337;-60
2021/12/15 04:19:32;;;;;;;39.03;25.47;;;8.50;53.40;;;;;;6232828;28;20481;-58
2021/12/15 04:22:35;;;;;;;40.50;26.27;;;8.50;53.80;;;;;;6232913;28;20711;-58
2021/12/15 04:25:41;;;;;;;44.23;26.20;;;8.50;53.90;;;;;;6239260;28;20237;-57
2021/12/15 04:28:46;;;;;;;35.13;25.53;;;8.50;53.40;;;;;;6228245;28;20854;-60
2021/12/15 04:31:54;;;;;;;38.73;26.90;;;8.50;53.70;;;;;;6219498;28;21142;-60
2021/12/15 04:34:57;;;;;;;37.47;25.80;;;8.60;53.40;;;;;;6237353;28;20231;-59
2021/12/15 04:38:01;;;;;;;38.43;25.47;;;8.50;53.90;;;;;;6240207;28;20319;-59
2021/12/15 04:41:07;;;;;;;39.30;24.67;;;8.50;54.30;;;;;;6229630;28;20885;-60
2021/12/15 04:44:20;;;;;;;38.30;25.40;;;8.50;54.40;;;;;;6227849;28;20247;-59
2021/12/15 04:47:25;;;;;;;34.07;23.83;;;8.50;53.60;;;;;;6228500;28;20235;-59
2021/12/15 04:50:31;;;;;;;37.13;24.53;;;8.50;54.00;;;;;;6233144;28;20741;-59
2021/12/15 04:53:37;;;;;;;34.23;24.70;;;8.50;53.30;;;;;;6238908;28;20783;-60
2021/12/15 04:56:40;;;;;;;33.47;23.30;;;8.60;53.60;;;;;;6244536;28;20237;-60
2021/12/15 04:59:46;;;;;;;36.10;23.67;;;8.60;52.90;;;;;;6234390;28;20321;-60
2021/12/15 05:02:52;;;;;;;38.53;24.43;;;8.60;52.50;;;;;;6235963;28;20342;-60
2021/12/15 05:05:55;;;;;;;35.43;23.70;;;8.60;52.60;;;;;;6239671;28;20238;-60
2021/12/15 05:09:00;;;;;;;35.50;22.50;;;8.60;52.50;;;;;;6237166;28;20404;-62
2021/12/15 05:12:06;;;;;;;32.10;22.83;;;8.60;51.80;;;;;;6220625;28;20342;-59
2021/12/15 05:15:12;;;;;;;36.30;23.47;;;8.60;52.50;;;;;;6212507;28;20318;-58
2021/12/15 05:18:15;;;;;;;36.67;24.13;;;8.50;53.30;;;;;;6211852;28;20239;-59
2021/12/15 05:21:19;;;;;;;34.63;24.17;;;8.50;53.50;;;;;;6209808;28;20356;-59
2021/12/15 05:24:31;;;;;;;33.67;23.13;;;8.50;53.50;;;;;;6212877;28;20861;-58
2021/12/15 05:27:34;;;;;;;32.53;23.77;;;8.60;52.50;;;;;;6212735;28;20326;-63
2021/12/15 05:30:39;;;;;;;35.23;23.20;;;8.60;52.50;;;;;;6207509;28;20274;-59
2021/12/15 05:33:42;;;;;;;38.97;25.87;;;8.60;53.40;;;;;;6212031;28;20249;-60
2021/12/15 05:36:46;;;;;;;32.10;23.50;;;8.60;52.50;;;;;;6212735;28;20243;-59
2021/12/15 05:39:51;;;;;;;35.00;24.43;;;8.60;53.30;;;;;;6211126;28;20456;-60
2021/12/15 05:42:56;;;;;;;37.33;26.10;;;8.60;52.50;;;;;;6209855;28;20302;-59
2021/12/15 05:46:00;;;;;;;33.47;23.67;;;8.60;52.90;;;;;;6219782;28;20231;-59
2021/12/15 05:49:06;;;;;;;34.17;24.37;;;8.60;52.70;;;;;;6233221;28;20240;-60
2021/12/15 05:52:09;;;;;;;37.27;23.37;;;8.60;53.20;;;;;;6240381;28;20638;-59
2021/12/15 05:55:15;;;;;;;39.43;24.57;;;8.70;52.60;;;;;;6228746;28;20231;-60
2021/12/15 05:58:18;;;;;;;37.73;24.70;;;8.70;52.10;;;;;;6239700;28;20226;-58
2021/12/15 06:01:22;;;;;;;37.10;24.80;;;8.60;53.10;;;;;;6234461;28;20369;-58
2021/12/15 06:04:25;;;;;;;35.30;23.43;;;8.60;53.40;;;;;;6237854;28;20232;-59
2021/12/15 06:07:28;;;;;;;34.23;24.30;;;8.70;54.10;;;;;;6234232;28;20261;-60
2021/12/15 06:10:32;;;;;;;39.07;25.27;;;8.70;52.70;;;;;;6229994;28;20314;-60
2021/12/15 06:13:36;;;;;;;35.33;24.83;;;8.60;54.10;;;;;;6235366;28;20235;-59
2021/12/15 06:16:40;;;;;;;37.10;25.00;;;8.70;54.30;;;;;;6227367;28;20727;-59
2021/12/15 06:19:44;;;;;;;37.43;25.00;;;8.70;54.00;;;;;;6228845;28;20731;-59
2021/12/15 06:22:47;;;;;;;43.37;26.60;;;8.80;52.70;;;;;;6227557;28;20239;-60
2021/12/15 06:25:53;;;;;;;38.40;26.43;;;8.70;52.10;;;;;;6227807;28;20316;-58
2021/12/15 06:28:56;;;;;;;38.00;25.57;;;8.70;52.60;;;;;;6233011;28;20234;-60
2021/12/15 06:32:01;;;;;;;32.93;23.63;;;8.70;53.30;;;;;;6222070;28;20397;-57
2021/12/15 06:35:05;;;;;;;33.67;24.57;;;8.70;53.30;;;;;;6236576;28;20235;-59
2021/12/15 06:38:09;;;;;;;38.83;25.90;;;8.70;53.90;;;;;;6231755;28;20673;-59
2021/12/15 06:41:13;;;;;;;31.77;23.17;;;8.60;54.40;;;;;;6240191;28;20557;-60
2021/12/15 06:44:16;;;;;;;35.07;24.30;;;8.70;54.60;;;;;;6239557;28;20713;-59
2021/12/15 06:57:13;;;;;;;34.90;22.90;;;8.70;52.70;;;;;;6237226;28;20239;-59
2021/12/15 07:01:04;;;;;;;33.20;23.23;;;8.70;52.20;;;;;;6239144;28;20358;-59
2021/12/15 07:04:09;;;;;;;30.93;22.00;;;8.70;52.60;;;;;;6237125;28;20307;-60
2021/12/15 07:07:12;;;;;;;33.83;23.73;;;8.70;52.60;;;;;;6240494;28;20246;-59
2021/12/15 07:10:19;;;;;;;34.77;23.97;;;8.60;52.50;;;;;;6247235;28;24358;-60
2021/12/15 07:13:23;;;;;;;30.70;23.40;;;8.60;52.60;;;;;;6228773;28;20235;-59
2021/12/15 07:16:28;;;;;;;32.97;23.63;;;8.60;52.60;;;;;;6243259;28;20341;-60
2021/12/15 07:19:44;;;;;;;29.27;21.77;;;8.60;52.60;;;;;;6240771;28;20743;-61
2021/12/15 07:22:51;;;;;;;33.23;23.70;;;8.60;53.60;;;;;;6227915;28;20246;-60
2021/12/15 07:25:54;;;;;;;30.20;22.37;;;8.70;52.60;;;;;;6248301;28;20239;-61
2021/12/15 07:28:57;;;;;;;34.10;22.03;;;8.70;52.70;;;;;;6245040;28;20243;-65
2021/12/15 07:32:01;;;;;;;31.47;21.73;;;8.60;52.50;;;;;;6236622;28;20256;-60
2021/12/15 07:35:07;;;;;;;32.57;22.07;;;8.60;52.50;;;;;;6234863;28;20656;-58
2021/12/15 07:38:11;;;;;;;30.63;21.90;;;8.60;52.50;;;;;;6244516;28;20326;-60
2021/12/15 07:41:25;;;;;;;28.57;21.50;;;8.70;52.60;;;;;;6234626;28;20238;-60
2021/12/15 07:44:28;;;;;;;30.37;21.60;;;8.60;53.50;;;;;;6219663;28;20727;-59
2021/12/15 07:47:31;;;;;;;32.97;22.20;;;8.70;52.90;;;;;;6238495;28;20238;-60
2021/12/15 07:50:38;;;;;;;29.97;21.60;;;8.60;53.00;;;;;;6238437;28;20602;-60
2021/12/15 07:53:42;;;;;;;31.43;22.00;;;8.60;53.90;;;;;;6233064;28;20322;-61
2021/12/15 07:56:45;;;;;;;30.87;22.23;;;8.70;54.40;;;;;;6233617;28;20321;-61
2021/12/15 07:59:49;;;;;;;29.47;22.53;;;8.60;55.10;;;;;;6243573;28;21034;-60
2021/12/15 08:02:53;;;;;;;28.90;21.80;;;8.70;53.60;;;;;;6233308;28;20271;-61
2021/12/15 08:05:58;;;;;;;28.93;21.20;;;8.70;53.20;;;;;;6235709;28;20329;-60
2021/12/15 08:09:01;;;;;;;30.33;21.33;;;8.70;53.30;;;;;;6236797;28;20341;-61
2021/12/15 08:12:05;;;;;;;29.40;21.67;;;8.80;53.20;;;;;;6236069;28;20256;-61
2021/12/15 08:15:09;;;;;;;35.07;23.17;;;8.70;53.70;;;;;;6236698;28;20313;-60
2021/12/15 08:18:12;;;;;;;30.27;21.13;;;8.70;54.50;;;;;;6226424;28;20234;-61
2021/12/15 08:21:17;;;;;;;29.27;21.37;;;8.70;53.80;;;;;;6221634;28;20296;-60
2021/12/15 08:24:20;;;;;;;25.07;20.27;;;8.80;54.00;;;;;;6233605;28;20617;-60
2021/12/15 08:27:23;;;;;;;29.90;20.20;;;8.80;52.70;;;;;;6242095;28;20262;-60
2021/12/15 08:30:29;;;;;;;29.90;21.30;;;8.80;52.70;;;;;;6245162;28;20361;-59
2021/12/15 08:33:35;;;;;;;26.07;19.60;;;8.90;52.80;;;;;;6231340;28;20249;-60
2021/12/15 08:36:40;;;;;;;28.53;20.33;;;8.90;52.80;;;;;;6236238;28;20281;-61
2021/12/15 08:39:44;;;;;;;27.43;20.20;;;8.90;52.80;;;;;;6242665;28;20612;-60
2021/12/15 08:42:47;;;;;;;26.77;19.47;;;8.90;52.80;;;;;;6239842;28;20329;-63
2021/12/15 08:45:56;;;;;;;24.77;18.60;;;8.90;52.80;;;;;;6235849;28;20295;-65
2021/12/15 08:49:01;;;;;;;25.67;19.87;;;8.90;52.80;;;;;;6235995;28;20310;-60
2021/12/15 08:52:07;;;;;;;25.93;19.53;;;8.90;52.80;;;;;;6226008;28;20282;-60
2021/12/15 08:55:11;;;;;;;26.03;19.93;;;9.00;52.90;;;;;;6209028;28;20515;-58
2021/12/15 08:58:15;;;;;;;26.63;20.57;;;9.00;51.80;;;;;;6239960;28;20513;-59
2021/12/15 09:01:23;;;;;;;25.47;20.73;;;9.10;52.40;;;;;;6244011;28;20238;-60
2021/12/15 09:04:26;;;;;;;28.57;21.17;;;9.00;51.90;;;;;;6238841;28;20241;-60
2021/12/15 09:07:34;;;;;;;27.73;20.60;;;9.10;51.70;;;;;;6243838;28;20328;-60
2021/12/15 09:10:40;;;;;;;25.97;20.63;;;9.10;51.70;;;;;;6235391;28;20230;-58
2021/12/15 09:13:47;;;;;;;29.40;20.97;;;9.20;50.90;;;;;;6236490;28;20239;-60
2021/12/15 09:16:53;;;;;;;25.33;21.00;;;9.20;50.20;;;;;;6239396;28;20235;-59
2021/12/15 09:19:56;;;;;;;23.93;19.97;;;9.20;50.00;;;;;;6226052;28;20238;-58
2021/12/15 09:23:02;;;;;;;25.27;20.17;;;9.20;49.10;;;;;;6241272;28;20237;-59
2021/12/15 09:26:06;;;;;;;26.40;19.53;;;9.30;49.00;;;;;;6211684;28;20318;-60
2021/12/15 09:29:10;;;;;;;29.03;20.20;;;9.30;48.80;;;;;;6236604;28;20657;-60
2021/12/15 09:32:14;;;;;;;27.83;19.37;;;9.30;48.60;;;;;;6233565;28;20326;-59
2021/12/15 09:35:19;;;;;;;26.03;19.10;;;9.20;49.40;;;;;;6231473;28;20241;-60
2021/12/15 09:38:24;;;;;;;24.00;20.10;;;9.20;49.00;;;;;;6236200;28;20845;-60
2021/12/15 09:41:28;;;;;;;23.03;18.60;;;9.30;48.60;;;;;;6233876;28;20287;-59
2021/12/15 09:44:31;;;;;;;26.10;19.50;;;9.30;48.50;;;;;;6231622;28;20333;-59
2021/12/15 09:47:51;;;;;;;26.50;19.30;;;9.30;47.90;;;;;;6237309;28;20311;-59
2021/12/15 10:01:54;;;;;;;27.97;20.13;;;9.40;48.20;;;;;;6228931;28;20270;-59
2021/12/15 10:04:42;;;;;;;27.17;20.07;;;9.40;48.30;;;;;;6234862;28;20247;-59
2021/12/15 10:11:43;;;;;;;23.87;19.03;;;9.30;49.20;;;;;;6232921;28;20270;-60
2021/12/15 10:18:14;;;;;;;24.87;20.13;;;9.40;49.60;;;;;;6234529;28;20582;-59
2021/12/15 10:21:24;;;;;;;26.60;19.43;;;9.40;47.80;;;;;;6235247;28;20385;-59
2021/12/15 10:24:29;;;;;;;26.20;19.60;;;9.50;46.40;;;;;;6244073;28;20673;-60
2021/12/15 10:27:37;;;;;;;23.47;18.97;;;9.50;46.00;;;;;;6239818;28;20270;-59
2021/12/15 10:30:42;;;;;;;23.73;18.90;;;9.50;46.40;;;;;;6237822;28;20249;-60
2021/12/15 10:33:49;;;;;;;23.40;18.43;;;9.50;47.00;;;;;;6215848;28;20284;-59
2021/12/15 10:36:53;;;;;;;20.63;17.37;;;9.50;45.60;;;;;;6230517;28;20245;-58
2021/12/15 10:40:19;;;;;;;23.10;19.50;;;9.50;46.00;;;;;;6246281;28;20242;-60
2021/12/15 10:43:28;;;;;;;23.53;19.00;;;9.50;46.20;;;;;;6237375;28;20322;-58
2021/12/15 10:46:34;;;;;;;21.33;17.80;;;9.50;47.10;;;;;;6218023;28;20230;-60
2021/12/15 10:49:40;;;;;;;23.87;18.10;;;9.50;47.90;;;;;;6247650;28;20313;-58
2021/12/15 10:52:55;;;;;;;21.10;18.00;;;9.50;47.10;;;;;;6235558;28;21002;-58
2021/12/15 10:55:59;;;;;;;21.83;18.77;;;9.50;47.40;;;;;;6237900;28;20254;-60
2021/12/15 10:59:06;;;;;;;24.07;18.40;;;9.40;47.70;;;;;;6234787;28;20656;-60
2021/12/15 11:02:12;;;;;;;22.27;18.40;;;9.50;47.90;;;;;;6223247;28;20704;-60
2021/12/15 11:05:20;;;;;;;21.77;17.83;;;9.50;47.10;;;;;;6244146;28;20484;-61
2021/12/15 11:08:23;;;;;;;22.43;17.80;;;9.50;46.80;;;;;;6239091;28;20665;-59
2021/12/15 11:11:29;;;;;;;22.17;18.10;;;9.60;45.70;;;;;;6238443;28;20317;-62
2021/12/15 11:14:36;;;;;;;56.97;34.70;;;9.60;46.00;;;;;;6239428;28;20620;-60
2021/12/15 11:17:41;;;;;;;20.23;16.40;;;9.60;45.90;;;;;;6233380;28;20300;-59
2021/12/15 11:20:46;;;;;;;26.13;18.80;;;9.60;45.80;;;;;;6234023;28;20315;-58
2021/12/15 11:23:55;;;;;;;22.93;16.30;;;9.60;45.40;;;;;;6235987;28;20250;-60
2021/12/15 11:27:16;;;;;;;19.90;16.03;;;9.60;45.50;;;;;;6211828;28;20378;-61
2021/12/15 11:30:28;;;;;;;19.20;16.00;;;9.60;45.10;;;;;;6233080;28;20299;-60
2021/12/15 11:33:34;;;;;;;18.40;15.17;;;9.60;46.10;;;;;;6225412;28;20230;-59
2021/12/15 11:36:44;;;;;;;18.20;15.40;;;9.70;45.70;;;;;;6240705;28;20389;-60
2021/12/15 11:39:47;;;;;;;18.50;14.97;;;9.70;44.70;;;;;;6232852;28;20243;-59
2021/12/15 11:42:50;;;;;;;19.17;15.97;;;9.80;44.30;;;;;;6237521;28;20287;-58
2021/12/15 11:45:55;;;;;;;17.73;15.87;;;9.80;43.50;;;;;;6234459;28;20397;-58
2021/12/15 11:49:01;;;;;;;18.30;16.27;;;9.80;44.30;;;;;;6232064;28;20235;-59
2021/12/15 11:52:06;;;;;;;18.03;16.13;;;9.80;42.50;;;;;;6218719;28;20318;-58
2021/12/15 11:55:23;;;;;;;19.07;15.93;;;9.90;41.50;;;;;;6233599;28;20234;-60
2021/12/15 11:58:33;;;;;;;15.93;14.30;;;9.90;41.60;;;;;;6234626;28;20234;-59
2021/12/15 12:01:51;;;;;;;15.50;13.80;;;10.00;41.20;;;;;;6235276;28;20230;-59
2021/12/15 12:04:58;;;;;;;16.80;14.53;;;10.00;39.70;;;;;;6226068;28;20814;-59
2021/12/15 12:08:07;;;;;;;15.40;13.80;;;10.00;38.70;;;;;;6233846;28;20361;-60
2021/12/15 12:11:15;;;;;;;18.47;13.83;;;10.10;36.70;;;;;;6241034;28;20255;-58
2021/12/15 12:14:37;;;;;;;14.83;13.27;;;10.10;37.40;;;;;;6239802;28;20325;-59
2021/12/15 12:17:43;;;;;;;14.70;13.23;;;10.10;36.60;;;;;;6214647;28;20239;-61
2021/12/15 12:20:49;;;;;;;14.77;13.30;;;10.10;36.20;;;;;;6240464;28;20317;-58
2021/12/15 12:23:53;;;;;;;14.67;13.07;;;10.20;35.40;;;;;;6237927;28;20324;-60
2021/12/15 12:26:56;;;;;;;14.23;12.70;;;10.20;35.60;;;;;;6234036;28;20241;-60
2021/12/15 12:30:04;;;;;;;14.73;13.23;;;10.30;34.90;;;;;;6233809;28;20803;-58
2021/12/15 12:33:11;;;;;;;13.17;11.87;;;10.30;34.40;;;;;;6225735;28;20219;-59
2021/12/15 12:36:16;;;;;;;14.37;12.50;;;10.30;34.10;;;;;;6235519;28;20409;-60
2021/12/15 12:39:21;;;;;;;15.80;12.77;;;10.40;34.20;;;;;;6234931;28;20231;-59
2021/12/15 12:42:30;;;;;;;13.30;12.00;;;10.40;32.50;;;;;;6233863;28;20361;-59
2021/12/15 12:45:37;;;;;;;13.07;11.93;;;10.40;31.60;;;;;;6244085;28;20638;-58
2021/12/15 12:49:14;;;;;;;12.80;11.60;;;10.40;32.00;;;;;;6231144;28;20292;-58
2021/12/15 12:59:25;;;;;;;13.30;11.87;;;10.30;33.20;;;;;;6238169;28;20227;-57
2021/12/15 13:02:42;;;;;;;13.80;12.40;;;10.40;32.20;;;;;;6240955;28;20716;-58
2021/12/15 13:05:50;;;;;;;13.03;11.87;;;10.30;33.40;;;;;;6230783;28;20234;-58
2021/12/15 13:09:00;;;;;;;12.50;11.30;;;10.40;34.00;;;;;;6237296;28;20240;-59
2021/12/15 13:12:19;;;;;;;12.20;11.10;;;10.30;34.10;;;;;;6233859;28;20743;-60
2021/12/15 13:15:35;;;;;;;12.53;11.40;;;10.30;34.10;;;;;;6221339;28;20238;-58
2021/12/15 13:18:48;;;;;;;13.03;11.70;;;10.30;34.10;;;;;;6235641;28;20345;-60
2021/12/15 13:22:05;;;;;;;12.73;11.53;;;10.30;34.50;;;;;;6234970;28;20376;-60
2021/12/15 13:28:47;;;;;;;13.63;12.27;;;10.30;35.80;;;;;;6227720;28;20242;-58
2021/12/15 13:31:57;;;;;;;13.13;11.77;;;10.30;35.80;;;;;;6229240;28;20651;-58
2021/12/15 13:35:00;;;;;;;13.70;12.30;;;10.30;35.90;;;;;;6221587;28;20231;-59
2021/12/15 13:38:31;;;;;;;12.83;11.43;;;10.30;35.80;;;;;;6233395;28;20235;-59
2021/12/15 13:41:41;;;;;;;13.50;12.10;;;10.30;35.80;;;;;;6241916;28;20230;-59
2021/12/15 13:44:47;;;;;;;16.27;12.90;;;10.30;36.30;;;;;;6233223;28;20395;-60
2021/12/15 13:47:49;;;;;;;14.53;12.53;;;10.30;35.50;;;;;;6237998;28;21816;-58
2021/12/15 13:50:52;;;;;;;13.90;12.60;;;10.30;35.20;;;;;;6238479;28;20241;-58
2021/12/15 13:53:56;;;;;;;18.20;13.33;;;10.30;35.70;;;;;;6232026;28;20276;-58
2021/12/15 13:57:01;;;;;;;14.23;12.73;;;10.30;35.30;;;;;;6234586;28;20800;-59
2021/12/15 14:00:18;;;;;;;18.30;13.07;;;10.30;36.70;;;;;;6239804;28;20246;-60
2021/12/15 14:03:28;;;;;;;15.27;13.67;;;10.20;36.90;;;;;;6224857;28;20353;-58
2021/12/15 14:06:31;;;;;;;19.27;13.50;;;10.20;36.20;;;;;;6228459;28;20636;-60
2021/12/15 14:09:35;;;;;;;15.43;13.67;;;10.20;36.60;;;;;;6232358;28;20242;-58
2021/12/15 14:12:52;;;;;;;14.23;12.63;;;10.20;37.90;;;;;;6223082;28;20239;-60
2021/12/15 14:15:55;;;;;;;16.20;13.43;;;10.10;37.40;;;;;;6226234;28;20868;-58
2021/12/15 14:19:00;;;;;;;15.87;13.83;;;10.20;37.50;;;;;;6236536;28;20231;-59
2021/12/15 14:22:05;;;;;;;16.93;14.40;;;10.20;37.40;;;;;;6237663;28;20323;-59
2021/12/15 14:25:10;;;;;;;15.57;13.97;;;10.20;37.70;;;;;;6227279;28;20305;-59
2021/12/15 14:28:15;;;;;;;16.67;14.97;;;10.10;38.00;;;;;;6237090;28;20231;-58
2021/12/15 14:31:23;;;;;;;15.03;13.43;;;10.10;38.50;;;;;;6237302;28;20230;-59
2021/12/15 14:34:28;;;;;;;20.00;14.87;;;10.20;37.60;;;;;;6236310;28;20270;-59
2021/12/15 14:37:31;;;;;;;17.13;13.43;;;10.30;36.70;;;;;;6235858;28;20296;-58
2021/12/15 14:40:35;;;;;;;15.97;14.33;;;10.20;36.90;;;;;;6235925;28;20269;-59
2021/12/15 14:43:38;;;;;;;17.07;13.90;;;10.20;36.70;;;;;;6242183;28;20307;-60
2021/12/15 14:46:43;;;;;;;16.17;14.53;;;10.20;36.80;;;;;;6204649;28;20231;-57
2021/12/15 14:49:48;;;;;;;16.20;13.77;;;10.20;36.80;;;;;;6238229;28;20342;-58
2021/12/15 14:52:56;;;;;;;16.17;14.53;;;10.20;36.70;;;;;;6239007;28;20397;-59
2021/12/15 14:56:01;;;;;;;15.40;13.53;;;10.20;36.80;;;;;;6233519;28;20616;-60
2021/12/15 14:59:03;;;;;;;17.50;14.10;;;10.10;37.70;;;;;;6238933;28;20539;-59
2021/12/15 15:02:09;;;;;;;15.83;14.13;;;10.20;38.00;;;;;;6235418;28;20230;-59
2021/12/15 15:05:17;;;;;;;17.07;14.40;;;10.10;37.20;;;;;;6231947;28;20242;-59
2021/12/15 15:08:25;;;;;;;16.00;14.23;;;10.10;37.90;;;;;;6230570;28;20284;-60
2021/12/15 15:11:29;;;;;;;15.90;13.40;;;10.20;36.90;;;;;;6233321;28;20274;-61
2021/12/15 15:14:37;;;;;;;15.83;14.13;;;10.20;37.40;;;;;;6240410;28;20230;-58
2021/12/15 15:17:50;;;;;;;15.73;14.10;;;10.10;38.10;;;;;;6235802;28;20336;-59
2021/12/15 15:20:55;;;;;;;14.77;13.37;;;10.10;38.70;;;;;;6235043;28;20718;-60
2021/12/15 15:23:58;;;;;;;15.27;13.63;;;10.00;38.90;;;;;;6232708;28;20258;-59
2021/12/15 15:27:06;;;;;;;15.40;13.80;;;10.00;39.10;;;;;;6238568;28;20242;-59
2021/12/15 15:30:12;;;;;;;15.83;14.23;;;10.00;39.80;;;;;;6238972;28;20339;-60
2021/12/15 15:33:18;;;;;;;14.87;13.47;;;10.00;38.70;;;;;;6224490;28;20279;-59
2021/12/15 15:36:27;;;;;;;15.83;14.20;;;10.10;38.20;;;;;;6233789;28;20826;-60
2021/12/15 15:39:35;;;;;;;15.30;13.77;;;10.10;38.40;;;;;;6237186;28;20291;-59
2021/12/15 15:42:40;;;;;;;14.70;13.30;;;10.00;39.00;;;;;;6234926;28;20873;-60
2021/12/15 15:45:45;;;;;;;17.03;14.33;;;10.00;39.20;;;;;;6231282;28;20401;-59
2021/12/15 15:48:50;;;;;;;15.27;13.67;;;10.00;39.60;;;;;;6235595;28;20318;-58
2021/12/15 15:51:53;;;;;;;15.93;14.33;;;10.00;38.70;;;;;;6237758;28;20239;-59
2021/12/15 15:54:55;;;;;;;16.23;13.60;;;10.10;38.70;;;;;;6234449;28;20388;-60
2021/12/15 15:58:06;;;;;;;15.10;13.73;;;10.10;38.50;;;;;;6228801;28;20304;-59
2021/12/15 16:01:10;;;;;;;14.20;12.90;;;10.10;38.30;;;;;;6230314;28;20295;-59
2021/12/15 16:04:16;;;;;;;16.30;13.30;;;10.10;38.10;;;;;;6234434;28;20310;-61
2021/12/15 16:07:22;;;;;;;14.03;12.73;;;10.10;37.50;;;;;;6231389;28;20270;-59
2021/12/15 16:10:28;;;;;;;15.50;13.30;;;10.10;38.70;;;;;;6234622;28;20234;-59
2021/12/15 16:13:36;;;;;;;15.97;14.27;;;10.00;38.70;;;;;;6234414;28;20636;-60
2021/12/15 16:16:47;;;;;;;14.83;12.73;;;10.00;37.60;;;;;;6236135;28;20320;-59
2021/12/15 16:19:55;;;;;;;14.10;12.50;;;10.10;37.50;;;;;;6230593;28;20235;-59
2021/12/15 16:23:03;;;;;;;18.27;13.70;;;10.00;37.40;;;;;;6230998;28;20512;-59
2021/12/15 16:26:09;;;;;;;15.57;14.00;;;10.10;38.70;;;;;;6236340;28;20231;-59
2021/12/15 16:29:16;;;;;;;15.77;14.07;;;10.00;38.20;;;;;;6232536;28;20264;-60
2021/12/15 16:32:18;;;;;;;15.27;13.90;;;10.00;38.00;;;;;;6237057;28;20325;-60
2021/12/15 16:35:24;;;;;;;17.17;15.07;;;10.00;38.50;;;;;;6226655;28;21981;-58
2021/12/15 16:38:30;;;;;;;16.17;14.53;;;10.10;38.20;;;;;;6223740;28;20237;-59
2021/12/15 16:41:35;;;;;;;16.37;14.73;;;10.00;38.70;;;;;;6229603;28;20234;-60
2021/12/15 16:44:47;;;;;;;15.53;13.93;;;10.00;38.70;;;;;;6241212;28;20238;-60
2021/12/15 16:47:50;;;;;;;16.53;14.93;;;10.00;37.90;;;;;;6237001;28;20289;-59
2021/12/15 16:50:57;;;;;;;16.73;14.93;;;10.00;38.70;;;;;;6233588;28;20300;-59
2021/12/15 16:54:05;;;;;;;15.63;14.20;;;9.90;40.50;;;;;;6229286;28;20266;-58
2021/12/15 16:57:09;;;;;;;16.27;14.47;;;10.00;38.70;;;;;;6236100;28;20239;-58
2021/12/15 17:00:17;;;;;;;16.47;14.77;;;10.00;38.70;;;;;;6229625;28;20640;-59